»·PEaware :: AAL485 KPHX-KLAX

AAL485 :: KPHX-KLAX

FLIGHT INFORMATION

Flight Status: Arrived
Operator:
American Airlines
More flights by this operator :: More flights under this callsign
Pilot: Anonymous 10623 (10623)
Aircraft: BOEING 767-200
(B762)
More flights by this aircraft type
Origin: KPHX Phoenix Sky Harbor Intl
United States
Destination: KLAX Los Angeles Intl
United States
More flights between these airports :: More routes between these airports
Route: +KEENS2 MESSI ESTWD HLYWD1
File this flight plan on PilotEdge
Remarks:
Altitude:
(Current/Filed)
36,000ft
Speed:
(Current/Filed)
472kts
Departed: 08-Dec-18 12:51 PM
Arrived: 08-Dec-18 01:53 PM
Distance/Time
Traveled:
321nm/1:01
Distance/Time
To Go:
Arrived

Flight Plot

Page will automatically refresh every two minutes.

Flight plan parsing failed; only flown route is shown


Map Options




Map Legend


Flown Route
Filed Route
Departure Airport
Arrival Airport
Navaid (VOR, NDB)
Fix

Horizontal Profiles

Position Reports

Time Latitude Longitude Heading Altitude Ground
Speed
08-Dec-18 12:25 33.437185 -111.997395 92 1135ft 0kts
08-Dec-18 12:26 33.437185 -111.997395 92 1135ft 0kts
08-Dec-18 12:27 33.437185 -111.997395 92 1135ft 0kts
08-Dec-18 12:28 33.437185 -111.997395 92 1134ft 0kts
08-Dec-18 12:29 33.437185 -111.997395 92 1134ft 0kts
08-Dec-18 12:30 33.437185 -111.997395 92 1134ft 0kts
08-Dec-18 12:31 33.437185 -111.997395 92 1134ft 0kts
08-Dec-18 12:32 33.437185 -111.997395 92 1134ft 0kts
08-Dec-18 12:33 33.437185 -111.997395 92 1134ft 0kts
08-Dec-18 12:34 33.437185 -111.997395 92 1134ft 0kts
08-Dec-18 12:35 33.437185 -111.997395 92 1134ft 0kts
08-Dec-18 12:36 33.437185 -111.997395 92 1134ft 0kts
08-Dec-18 12:37 33.437185 -111.997395 92 1134ft 0kts
08-Dec-18 12:38 33.437200 -111.997817 92 1134ft 0kts
08-Dec-18 12:39 33.436898 -111.998245 1 1134ft 0kts
08-Dec-18 12:40 33.437964 -111.998236 359 1136ft 0kts
08-Dec-18 12:41 33.437965 -111.998236 359 1136ft 0kts
08-Dec-18 12:42 33.437965 -111.998236 359 1136ft 0kts
08-Dec-18 12:43 33.437965 -111.998236 359 1136ft 0kts
08-Dec-18 12:44 33.438888 -111.998423 322 1137ft 15kts
08-Dec-18 12:45 33.439018 -112.006660 270 1133ft 26kts
08-Dec-18 12:46 33.439012 -112.016845 269 1126ft 36kts
08-Dec-18 12:47 33.439016 -112.025216 269 1120ft 23kts
08-Dec-18 12:48 33.439882 -112.029682 359 1117ft 6kts
08-Dec-18 12:49 33.440869 -112.028178 89 1117ft 21kts
08-Dec-18 12:50 33.441110 -111.990114 90 1798ft 167kts
08-Dec-18 12:51 33.437962 -111.930626 93 3164ft 212kts
08-Dec-18 12:52 33.421493 -111.862443 142 5872ft 243kts
08-Dec-18 12:53 33.364064 -111.861855 229 8652ft 252kts
08-Dec-18 12:54 33.358103 -111.942450 276 11131ft 273kts
08-Dec-18 12:55 33.368120 -112.042988 282 12638ft 341kts
08-Dec-18 12:56 33.385761 -112.161023 281 14964ft 380kts
08-Dec-18 12:57 33.403605 -112.281859 282 17801ft 392kts
08-Dec-18 12:58 33.421685 -112.405183 282 20408ft 403kts
08-Dec-18 12:59 33.441209 -112.539364 282 22985ft 415kts
08-Dec-18 13:00 33.450938 -112.676211 273 25332ft 429kts
08-Dec-18 13:01 33.460953 -112.818856 289 27623ft 435kts
08-Dec-18 13:02 33.506680 -112.953303 293 30115ft 437kts
08-Dec-18 13:03 33.552017 -113.083708 293 32847ft 420kts
08-Dec-18 13:04 33.596277 -113.211123 292 34518ft 413kts
08-Dec-18 13:05 33.639973 -113.337346 292 35603ft 410kts
08-Dec-18 13:06 33.683374 -113.463176 292 36305ft 408kts
08-Dec-18 13:07 33.726536 -113.588813 292 36307ft 407kts
08-Dec-18 13:08 33.768429 -113.711223 292 36332ft 408kts
08-Dec-18 13:09 33.810518 -113.834660 292 36338ft 407kts
08-Dec-18 13:10 33.853364 -113.960710 292 36336ft 407kts
08-Dec-18 13:11 33.895856 -114.086222 292 36335ft 407kts
08-Dec-18 13:12 33.922781 -114.218552 283 36333ft 409kts
08-Dec-18 13:13 33.945582 -114.352221 283 36331ft 408kts
08-Dec-18 13:14 33.968097 -114.485954 283 36329ft 409kts
08-Dec-18 13:15 33.990527 -114.620247 283 36327ft 409kts
08-Dec-18 13:16 34.012051 -114.750001 282 36338ft 409kts
08-Dec-18 13:17 34.034058 -114.883612 282 36344ft 409kts
08-Dec-18 13:18 34.055565 -115.015140 282 36322ft 397kts
08-Dec-18 13:19 34.076767 -115.145313 282 36322ft 397kts
08-Dec-18 13:21 34.097854 -115.275713 282 36341ft 396kts
08-Dec-18 13:22 34.118293 -115.402958 282 36388ft 396kts
08-Dec-18 13:23 34.139035 -115.532998 282 36405ft 397kts
08-Dec-18 13:24 34.159414 -115.662050 280 36411ft 397kts
08-Dec-18 13:25 34.154665 -115.780032 267 36415ft 399kts
08-Dec-18 13:26 34.142447 -115.909818 267 35402ft 392kts
08-Dec-18 13:27 34.129823 -116.039806 267 33061ft 399kts
08-Dec-18 13:28 34.116702 -116.173237 267 30864ft 410kts
08-Dec-18 13:29 34.103916 -116.301421 266 28906ft 413kts
08-Dec-18 13:30 34.089423 -116.437198 266 26996ft 406kts
08-Dec-18 13:31 34.075426 -116.566760 266 25384ft 375kts
08-Dec-18 13:32 34.064267 -116.683694 267 24070ft 361kts
08-Dec-18 13:33 34.053307 -116.801358 267 22238ft 353kts
08-Dec-18 13:34 34.041527 -116.916483 264 20524ft 348kts
08-Dec-18 13:35 34.026803 -117.029781 264 18547ft 344kts
08-Dec-18 13:36 34.013646 -117.140689 264 16892ft 334kts
08-Dec-18 13:37 34.000661 -117.249533 264 15286ft 329kts
08-Dec-18 13:38 33.988033 -117.355838 264 13778ft 324kts
08-Dec-18 13:39 33.975547 -117.461772 263 12376ft 320kts
08-Dec-18 13:40 33.985574 -117.562037 283 11042ft 303kts
08-Dec-18 13:41 34.001906 -117.654738 283 10008ft 288kts
08-Dec-18 13:41 34.002395 -117.727377 265 9870ft 269kts
08-Dec-18 13:43 33.992653 -117.830630 265 8474ft 266kts
08-Dec-18 13:43 33.985723 -117.902327 264 7340ft 263kts
08-Dec-18 13:44 33.977348 -117.987793 264 6109ft 261kts
08-Dec-18 13:45 33.968961 -118.072314 264 4997ft 249kts
08-Dec-18 13:46 33.961279 -118.148806 264 3936ft 217kts
08-Dec-18 13:47 33.954452 -118.216080 263 2862ft 198kts
08-Dec-18 13:48 33.948195 -118.277430 263 1855ft 171kts
08-Dec-18 13:49 33.943141 -118.326996 263 1026ft 139kts
08-Dec-18 13:50 33.938606 -118.371069 263 316ft 131kts
08-Dec-18 13:51 33.935399 -118.404183 276 125ft 44kts
08-Dec-18 13:52 33.935786 -118.405920 290 128ft 0kts
08-Dec-18 13:53 33.936171 -118.408594 304 130ft 22kts
08-Dec-18 13:54 33.939073 -118.405702 64 126ft 11kts
08-Dec-18 13:55 33.941510 -118.405879 283 125ft 4kts
08-Dec-18 13:56 33.941485 -118.406304 263 126ft 0kts
08-Dec-18 13:57 33.941485 -118.406304 263 126ft 0kts
08-Dec-18 13:58 33.941485 -118.406304 263 126ft 0kts

Navigation Log

Ident Type
Flight plan parsing failed, navigation log unavailable